sensor_id;sensor_type;location;lat;lon;timestamp;P1;P2;P0
47741;PMS5003;33504;52.066;6.096;2023-06-22T00:01:49;21;20;
47741;PMS5003;33504;52.066;6.096;2023-06-22T00:04:17;24;24;
47741;PMS5003;33504;52.066;6.096;2023-06-22T00:06:44;58;58;
47741;PMS5003;33504;52.066;6.096;2023-06-22T00:09:11;26;26;
47741;PMS5003;33504;52.066;6.096;2023-06-22T00:11:37;20;20;
47741;PMS5003;33504;52.066;6.096;2023-06-22T00:14:05;46;46;
47741;PMS5003;33504;52.066;6.096;2023-06-22T00:16:32;48;48;
47741;PMS5003;33504;52.066;6.096;2023-06-22T00:19:00;35;34;
47741;PMS5003;33504;52.066;6.096;2023-06-22T00:21:27;44;44;
47741;PMS5003;33504;52.066;6.096;2023-06-22T00:23:54;29;29;
47741;PMS5003;33504;52.066;6.096;2023-06-22T00:26:21;38;37;
47741;PMS5003;33504;52.066;6.096;2023-06-22T00:28:48;17;17;
47741;PMS5003;33504;52.066;6.096;2023-06-22T00:31:15;28;27;
47741;PMS5003;33504;52.066;6.096;2023-06-22T00:33:42;32;31;
47741;PMS5003;33504;52.066;6.096;2023-06-22T00:36:09;24;23;
47741;PMS5003;33504;52.066;6.096;2023-06-22T00:38:37;43;43;
47741;PMS5003;33504;52.066;6.096;2023-06-22T00:41:03;23;23;
47741;PMS5003;33504;52.066;6.096;2023-06-22T00:43:30;28;28;
47741;PMS5003;33504;52.066;6.096;2023-06-22T00:45:57;43;43;
47741;PMS5003;33504;52.066;6.096;2023-06-22T00:48:25;37;36;
47741;PMS5003;33504;52.066;6.096;2023-06-22T00:50:53;32;32;
47741;PMS5003;33504;52.066;6.096;2023-06-22T00:53:20;31;31;
47741;PMS5003;33504;52.066;6.096;2023-06-22T00:55:48;46;45;
47741;PMS5003;33504;52.066;6.096;2023-06-22T00:58:16;33;33;
47741;PMS5003;33504;52.066;6.096;2023-06-22T01:00:43;28;28;
47741;PMS5003;33504;52.066;6.096;2023-06-22T01:03:11;39;39;
47741;PMS5003;33504;52.066;6.096;2023-06-22T01:05:38;35;34;
47741;PMS5003;33504;52.066;6.096;2023-06-22T01:08:10;31;31;
47741;PMS5003;33504;52.066;6.096;2023-06-22T01:10:44;40;39;
47741;PMS5003;33504;52.066;6.096;2023-06-22T01:13:19;40;40;
47741;PMS5003;33504;52.066;6.096;2023-06-22T01:15:53;74;73;
47741;PMS5003;33504;52.066;6.096;2023-06-22T01:18:26;113;113;
47741;PMS5003;33504;52.066;6.096;2023-06-22T01:20:56;75;75;
47741;PMS5003;33504;52.066;6.096;2023-06-22T01:23:26;72;72;
47741;PMS5003;33504;52.066;6.096;2023-06-22T01:26:04;40;40;
47741;PMS5003;33504;52.066;6.096;2023-06-22T01:28:40;12;12;
47741;PMS5003;33504;52.066;6.096;2023-06-22T01:31:10;17;17;
47741;PMS5003;33504;52.066;6.096;2023-06-22T01:33:40;17;16;
47741;PMS5003;33504;52.066;6.096;2023-06-22T01:36:09;13;13;
47741;PMS5003;33504;52.066;6.096;2023-06-22T01:38:38;16;16;
47741;PMS5003;33504;52.066;6.096;2023-06-22T01:41:05;16;16;
47741;PMS5003;33504;52.066;6.096;2023-06-22T01:43:32;15;15;
47741;PMS5003;33504;52.066;6.096;2023-06-22T01:46:01;15;15;
47741;PMS5003;33504;52.066;6.096;2023-06-22T01:48:29;18;18;
47741;PMS5003;33504;52.066;6.096;2023-06-22T01:50:57;16;15;
47741;PMS5003;33504;52.066;6.096;2023-06-22T01:53:24;18;17;
47741;PMS5003;33504;52.066;6.096;2023-06-22T01:55:51;14;14;
47741;PMS5003;33504;52.066;6.096;2023-06-22T01:58:18;14;14;
47741;PMS5003;33504;52.066;6.096;2023-06-22T02:00:48;17;16;
47741;PMS5003;33504;52.066;6.096;2023-06-22T02:03:22;21;21;
47741;PMS5003;33504;52.066;6.096;2023-06-22T02:05:54;18;18;
47741;PMS5003;33504;52.066;6.096;2023-06-22T02:08:28;21;21;
47741;PMS5003;33504;52.066;6.096;2023-06-22T02:10:59;19;18;
47741;PMS5003;33504;52.066;6.096;2023-06-22T02:13:27;18;17;
47741;PMS5003;33504;52.066;6.096;2023-06-22T02:15:54;20;17;
47741;PMS5003;33504;52.066;6.096;2023-06-22T02:18:21;20;20;
47741;PMS5003;33504;52.066;6.096;2023-06-22T02:20:48;19;19;
47741;PMS5003;33504;52.066;6.096;2023-06-22T02:23:15;18;18;
47741;PMS5003;33504;52.066;6.096;2023-06-22T02:25:42;18;18;
47741;PMS5003;33504;52.066;6.096;2023-06-22T02:28:09;22;21;
47741;PMS5003;33504;52.066;6.096;2023-06-22T02:30:37;23;21;
47741;PMS5003;33504;52.066;6.096;2023-06-22T02:33:04;19;19;
47741;PMS5003;33504;52.066;6.096;2023-06-22T02:35:31;22;21;
47741;PMS5003;33504;52.066;6.096;2023-06-22T02:37:57;20;19;
47741;PMS5003;33504;52.066;6.096;2023-06-22T02:40:25;17;17;
47741;PMS5003;33504;52.066;6.096;2023-06-22T02:42:51;18;17;
47741;PMS5003;33504;52.066;6.096;2023-06-22T02:45:18;22;20;
47741;PMS5003;33504;52.066;6.096;2023-06-22T02:47:46;20;18;
47741;PMS5003;33504;52.066;6.096;2023-06-22T02:50:13;27;24;
47741;PMS5003;33504;52.066;6.096;2023-06-22T02:52:40;25;25;
47741;PMS5003;33504;52.066;6.096;2023-06-22T02:55:07;19;19;
47741;PMS5003;33504;52.066;6.096;2023-06-22T02:57:35;24;23;
47741;PMS5003;33504;52.066;6.096;2023-06-22T03:00:02;20;20;
47741;PMS5003;33504;52.066;6.096;2023-06-22T03:02:30;25;23;
47741;PMS5003;33504;52.066;6.096;2023-06-22T03:04:57;26;24;
47741;PMS5003;33504;52.066;6.096;2023-06-22T03:07:24;26;26;
47741;PMS5003;33504;52.066;6.096;2023-06-22T03:09:51;22;22;
47741;PMS5003;33504;52.066;6.096;2023-06-22T03:12:18;25;24;
47741;PMS5003;33504;52.066;6.096;2023-06-22T03:14:45;26;26;
47741;PMS5003;33504;52.066;6.096;2023-06-22T03:17:12;21;21;
47741;PMS5003;33504;52.066;6.096;2023-06-22T03:19:39;27;24;
47741;PMS5003;33504;52.066;6.096;2023-06-22T03:22:05;25;25;
47741;PMS5003;33504;52.066;6.096;2023-06-22T03:24:32;26;25;
47741;PMS5003;33504;52.066;6.096;2023-06-22T03:27:00;23;22;
47741;PMS5003;33504;52.066;6.096;2023-06-22T03:29:27;26;26;
47741;PMS5003;33504;52.066;6.096;2023-06-22T03:31:53;26;25;
47741;PMS5003;33504;52.066;6.096;2023-06-22T03:34:20;23;23;
47741;PMS5003;33504;52.066;6.096;2023-06-22T03:36:48;28;27;
47741;PMS5003;33504;52.066;6.096;2023-06-22T03:39:14;25;24;
47741;PMS5003;33504;52.066;6.096;2023-06-22T03:41:42;26;25;
47741;PMS5003;33504;52.066;6.096;2023-06-22T03:44:08;26;24;
47741;PMS5003;33504;52.066;6.096;2023-06-22T03:46:36;24;24;
47741;PMS5003;33504;52.066;6.096;2023-06-22T03:49:02;26;25;
47741;PMS5003;33504;52.066;6.096;2023-06-22T03:51:30;26;24;
47741;PMS5003;33504;52.066;6.096;2023-06-22T03:53:58;26;26;
47741;PMS5003;33504;52.066;6.096;2023-06-22T03:56:25;33;32;
47741;PMS5003;33504;52.066;6.096;2023-06-22T03:58:52;30;29;
47741;PMS5003;33504;52.066;6.096;2023-06-22T04:01:19;26;25;
47741;PMS5003;33504;52.066;6.096;2023-06-22T04:03:46;31;30;
47741;PMS5003;33504;52.066;6.096;2023-06-22T04:06:13;35;35;
47741;PMS5003;33504;52.066;6.096;2023-06-22T04:08:40;30;29;
47741;PMS5003;33504;52.066;6.096;2023-06-22T04:11:07;31;31;
47741;PMS5003;33504;52.066;6.096;2023-06-22T04:13:34;37;36;
47741;PMS5003;33504;52.066;6.096;2023-06-22T04:16:01;32;31;
47741;PMS5003;33504;52.066;6.096;2023-06-22T04:18:28;34;33;
47741;PMS5003;33504;52.066;6.096;2023-06-22T04:20:55;34;32;
47741;PMS5003;33504;52.066;6.096;2023-06-22T04:23:22;34;33;
47741;PMS5003;33504;52.066;6.096;2023-06-22T04:25:48;30;29;
47741;PMS5003;33504;52.066;6.096;2023-06-22T04:28:16;38;37;
47741;PMS5003;33504;52.066;6.096;2023-06-22T04:30:43;33;33;
47741;PMS5003;33504;52.066;6.096;2023-06-22T04:33:10;38;36;
47741;PMS5003;33504;52.066;6.096;2023-06-22T04:35:37;33;32;
47741;PMS5003;33504;52.066;6.096;2023-06-22T04:38:04;47;46;
47741;PMS5003;33504;52.066;6.096;2023-06-22T04:40:30;35;34;
47741;PMS5003;33504;52.066;6.096;2023-06-22T04:42:58;38;37;
47741;PMS5003;33504;52.066;6.096;2023-06-22T04:45:25;40;40;
47741;PMS5003;33504;52.066;6.096;2023-06-22T04:47:52;35;35;
47741;PMS5003;33504;52.066;6.096;2023-06-22T04:50:19;41;40;
47741;PMS5003;33504;52.066;6.096;2023-06-22T04:52:46;38;38;
47741;PMS5003;33504;52.066;6.096;2023-06-22T04:55:14;38;37;
47741;PMS5003;33504;52.066;6.096;2023-06-22T04:57:41;37;36;
47741;PMS5003;33504;52.066;6.096;2023-06-22T05:00:09;42;41;
47741;PMS5003;33504;52.066;6.096;2023-06-22T05:02:36;44;42;
47741;PMS5003;33504;52.066;6.096;2023-06-22T05:05:03;37;37;
47741;PMS5003;33504;52.066;6.096;2023-06-22T05:07:31;37;35;
47741;PMS5003;33504;52.066;6.096;2023-06-22T05:09:58;44;43;
47741;PMS5003;33504;52.066;6.096;2023-06-22T05:12:25;41;41;
47741;PMS5003;33504;52.066;6.096;2023-06-22T05:14:52;46;45;
47741;PMS5003;33504;52.066;6.096;2023-06-22T05:17:19;45;44;
47741;PMS5003;33504;52.066;6.096;2023-06-22T05:19:46;52;50;
47741;PMS5003;33504;52.066;6.096;2023-06-22T05:22:14;44;43;
47741;PMS5003;33504;52.066;6.096;2023-06-22T05:24:41;44;43;
47741;PMS5003;33504;52.066;6.096;2023-06-22T05:27:08;41;38;
47741;PMS5003;33504;52.066;6.096;2023-06-22T05:29:35;50;47;
47741;PMS5003;33504;52.066;6.096;2023-06-22T05:32:03;48;46;
47741;PMS5003;33504;52.066;6.096;2023-06-22T05:34:30;49;46;
47741;PMS5003;33504;52.066;6.096;2023-06-22T05:36:57;48;45;
47741;PMS5003;33504;52.066;6.096;2023-06-22T05:39:24;52;49;
47741;PMS5003;33504;52.066;6.096;2023-06-22T05:41:52;55;55;
47741;PMS5003;33504;52.066;6.096;2023-06-22T05:44:18;51;50;
47741;PMS5003;33504;52.066;6.096;2023-06-22T05:46:45;44;44;
47741;PMS5003;33504;52.066;6.096;2023-06-22T05:49:13;51;49;
47741;PMS5003;33504;52.066;6.096;2023-06-22T05:51:40;45;45;
47741;PMS5003;33504;52.066;6.096;2023-06-22T05:54:07;57;55;
47741;PMS5003;33504;52.066;6.096;2023-06-22T05:56:34;58;55;
47741;PMS5003;33504;52.066;6.096;2023-06-22T05:59:01;45;44;
47741;PMS5003;33504;52.066;6.096;2023-06-22T06:01:28;52;50;
47741;PMS5003;33504;52.066;6.096;2023-06-22T06:03:55;49;49;
47741;PMS5003;33504;52.066;6.096;2023-06-22T06:06:22;46;45;
47741;PMS5003;33504;52.066;6.096;2023-06-22T06:08:49;54;52;
47741;PMS5003;33504;52.066;6.096;2023-06-22T06:11:17;49;48;
47741;PMS5003;33504;52.066;6.096;2023-06-22T06:13:44;53;52;
47741;PMS5003;33504;52.066;6.096;2023-06-22T06:16:11;51;49;
47741;PMS5003;33504;52.066;6.096;2023-06-22T06:18:39;60;59;
47741;PMS5003;33504;52.066;6.096;2023-06-22T06:21:06;63;59;
47741;PMS5003;33504;52.066;6.096;2023-06-22T06:23:33;58;56;
47741;PMS5003;33504;52.066;6.096;2023-06-22T06:25:59;56;55;
47741;PMS5003;33504;52.066;6.096;2023-06-22T06:28:27;53;51;
47741;PMS5003;33504;52.066;6.096;2023-06-22T06:30:54;50;48;
47741;PMS5003;33504;52.066;6.096;2023-06-22T06:33:20;51;47;
47741;PMS5003;33504;52.066;6.096;2023-06-22T06:35:48;45;43;
47741;PMS5003;33504;52.066;6.096;2023-06-22T06:38:14;46;46;
47741;PMS5003;33504;52.066;6.096;2023-06-22T06:40:41;47;45;
47741;PMS5003;33504;52.066;6.096;2023-06-22T06:43:08;46;45;
47741;PMS5003;33504;52.066;6.096;2023-06-22T06:45:36;55;53;
47741;PMS5003;33504;52.066;6.096;2023-06-22T06:48:03;46;46;
47741;PMS5003;33504;52.066;6.096;2023-06-22T06:50:30;39;38;
47741;PMS5003;33504;52.066;6.096;2023-06-22T06:52:58;43;40;
47741;PMS5003;33504;52.066;6.096;2023-06-22T06:55:25;42;41;
47741;PMS5003;33504;52.066;6.096;2023-06-22T06:57:52;34;34;
47741;PMS5003;33504;52.066;6.096;2023-06-22T07:00:19;39;38;
47741;PMS5003;33504;52.066;6.096;2023-06-22T07:02:47;40;39;
47741;PMS5003;33504;52.066;6.096;2023-06-22T07:05:13;39;38;
47741;PMS5003;33504;52.066;6.096;2023-06-22T07:07:40;46;43;
47741;PMS5003;33504;52.066;6.096;2023-06-22T07:10:07;38;36;
47741;PMS5003;33504;52.066;6.096;2023-06-22T07:12:35;39;37;
47741;PMS5003;33504;52.066;6.096;2023-06-22T07:15:02;38;37;
47741;PMS5003;33504;52.066;6.096;2023-06-22T07:17:30;45;42;
47741;PMS5003;33504;52.066;6.096;2023-06-22T07:19:58;35;35;
47741;PMS5003;33504;52.066;6.096;2023-06-22T07:22:25;36;35;
47741;PMS5003;33504;52.066;6.096;2023-06-22T07:24:51;41;40;
47741;PMS5003;33504;52.066;6.096;2023-06-22T07:27:19;40;39;
47741;PMS5003;33504;52.066;6.096;2023-06-22T07:29:46;39;37;
47741;PMS5003;33504;52.066;6.096;2023-06-22T07:32:13;37;36;
47741;PMS5003;33504;52.066;6.096;2023-06-22T07:34:40;39;36;
47741;PMS5003;33504;52.066;6.096;2023-06-22T07:37:07;38;38;
47741;PMS5003;33504;52.066;6.096;2023-06-22T07:39:35;41;41;
47741;PMS5003;33504;52.066;6.096;2023-06-22T07:42:02;41;39;
47741;PMS5003;33504;52.066;6.096;2023-06-22T07:44:29;38;36;
47741;PMS5003;33504;52.066;6.096;2023-06-22T07:46:57;31;31;
47741;PMS5003;33504;52.066;6.096;2023-06-22T07:49:23;36;34;
47741;PMS5003;33504;52.066;6.096;2023-06-22T07:51:50;32;30;
47741;PMS5003;33504;52.066;6.096;2023-06-22T07:54:17;32;31;
47741;PMS5003;33504;52.066;6.096;2023-06-22T07:56:45;42;41;
47741;PMS5003;33504;52.066;6.096;2023-06-22T07:59:13;33;31;
47741;PMS5003;33504;52.066;6.096;2023-06-22T08:01:40;33;32;
47741;PMS5003;33504;52.066;6.096;2023-06-22T08:04:07;32;32;
47741;PMS5003;33504;52.066;6.096;2023-06-22T08:06:34;29;28;
47741;PMS5003;33504;52.066;6.096;2023-06-22T08:09:02;31;31;
47741;PMS5003;33504;52.066;6.096;2023-06-22T08:11:28;31;30;
47741;PMS5003;33504;52.066;6.096;2023-06-22T08:13:55;35;35;
47741;PMS5003;33504;52.066;6.096;2023-06-22T08:16:22;28;28;
47741;PMS5003;33504;52.066;6.096;2023-06-22T08:18:50;33;32;
47741;PMS5003;33504;52.066;6.096;2023-06-22T08:21:17;27;27;
47741;PMS5003;33504;52.066;6.096;2023-06-22T08:23:44;29;29;
47741;PMS5003;33504;52.066;6.096;2023-06-22T08:26:11;29;29;
47741;PMS5003;33504;52.066;6.096;2023-06-22T08:28:38;28;26;
47741;PMS5003;33504;52.066;6.096;2023-06-22T08:31:05;31;31;
47741;PMS5003;33504;52.066;6.096;2023-06-22T08:33:32;29;29;
47741;PMS5003;33504;52.066;6.096;2023-06-22T08:35:59;32;32;
47741;PMS5003;33504;52.066;6.096;2023-06-22T08:38:26;30;30;
47741;PMS5003;33504;52.066;6.096;2023-06-22T08:40:53;28;28;
47741;PMS5003;33504;52.066;6.096;2023-06-22T08:43:20;29;28;
47741;PMS5003;33504;52.066;6.096;2023-06-22T08:45:48;30;30;
47741;PMS5003;33504;52.066;6.096;2023-06-22T08:48:15;37;36;
47741;PMS5003;33504;52.066;6.096;2023-06-22T08:50:42;35;35;
47741;PMS5003;33504;52.066;6.096;2023-06-22T08:53:09;29;27;
47741;PMS5003;33504;52.066;6.096;2023-06-22T08:55:35;25;25;
47741;PMS5003;33504;52.066;6.096;2023-06-22T08:58:03;26;26;
47741;PMS5003;33504;52.066;6.096;2023-06-22T09:00:30;30;29;
47741;PMS5003;33504;52.066;6.096;2023-06-22T09:02:57;26;25;
47741;PMS5003;33504;52.066;6.096;2023-06-22T09:05:24;28;28;
47741;PMS5003;33504;52.066;6.096;2023-06-22T09:07:52;26;25;
47741;PMS5003;33504;52.066;6.096;2023-06-22T09:10:19;27;26;
47741;PMS5003;33504;52.066;6.096;2023-06-22T09:12:45;29;26;
47741;PMS5003;33504;52.066;6.096;2023-06-22T09:15:12;21;21;
47741;PMS5003;33504;52.066;6.096;2023-06-22T09:17:40;22;22;
47741;PMS5003;33504;52.066;6.096;2023-06-22T09:20:07;22;21;
47741;PMS5003;33504;52.066;6.096;2023-06-22T09:22:35;21;21;
47741;PMS5003;33504;52.066;6.096;2023-06-22T09:25:02;21;20;
47741;PMS5003;33504;52.066;6.096;2023-06-22T09:27:29;20;20;
47741;PMS5003;33504;52.066;6.096;2023-06-22T09:29:56;25;23;
47741;PMS5003;33504;52.066;6.096;2023-06-22T09:32:23;24;24;
47741;PMS5003;33504;52.066;6.096;2023-06-22T09:34:51;26;26;
47741;PMS5003;33504;52.066;6.096;2023-06-22T09:37:18;25;25;
47741;PMS5003;33504;52.066;6.096;2023-06-22T09:39:45;19;19;
47741;PMS5003;33504;52.066;6.096;2023-06-22T09:42:12;23;23;
47741;PMS5003;33504;52.066;6.096;2023-06-22T09:44:39;24;24;
47741;PMS5003;33504;52.066;6.096;2023-06-22T09:47:06;23;22;
47741;PMS5003;33504;52.066;6.096;2023-06-22T09:49:33;19;19;
47741;PMS5003;33504;52.066;6.096;2023-06-22T09:52:01;20;20;
47741;PMS5003;33504;52.066;6.096;2023-06-22T09:54:28;21;21;
47741;PMS5003;33504;52.066;6.096;2023-06-22T09:56:55;22;22;
47741;PMS5003;33504;52.066;6.096;2023-06-22T09:59:22;23;22;
47741;PMS5003;33504;52.066;6.096;2023-06-22T10:01:49;18;18;
47741;PMS5003;33504;52.066;6.096;2023-06-22T10:04:16;19;19;
47741;PMS5003;33504;52.066;6.096;2023-06-22T10:06:43;21;20;
47741;PMS5003;33504;52.066;6.096;2023-06-22T10:09:10;21;19;
47741;PMS5003;33504;52.066;6.096;2023-06-22T10:11:37;23;23;
47741;PMS5003;33504;52.066;6.096;2023-06-22T10:14:05;26;23;
47741;PMS5003;33504;52.066;6.096;2023-06-22T10:16:32;19;18;
47741;PMS5003;33504;52.066;6.096;2023-06-22T10:18:59;21;21;
47741;PMS5003;33504;52.066;6.096;2023-06-22T10:21:26;22;21;
47741;PMS5003;33504;52.066;6.096;2023-06-22T10:23:53;18;17;
47741;PMS5003;33504;52.066;6.096;2023-06-22T10:26:21;20;20;
47741;PMS5003;33504;52.066;6.096;2023-06-22T10:28:48;19;19;
47741;PMS5003;33504;52.066;6.096;2023-06-22T10:31:16;18;17;
47741;PMS5003;33504;52.066;6.096;2023-06-22T10:33:43;24;23;
47741;PMS5003;33504;52.066;6.096;2023-06-22T10:36:10;22;20;
47741;PMS5003;33504;52.066;6.096;2023-06-22T10:38:37;22;21;
47741;PMS5003;33504;52.066;6.096;2023-06-22T10:41:05;26;25;
47741;PMS5003;33504;52.066;6.096;2023-06-22T10:43:32;22;22;
47741;PMS5003;33504;52.066;6.096;2023-06-22T10:45:59;25;24;
47741;PMS5003;33504;52.066;6.096;2023-06-22T10:48:27;22;22;
47741;PMS5003;33504;52.066;6.096;2023-06-22T10:50:54;25;25;
47741;PMS5003;33504;52.066;6.096;2023-06-22T10:53:22;27;26;
47741;PMS5003;33504;52.066;6.096;2023-06-22T10:55:49;19;19;
47741;PMS5003;33504;52.066;6.096;2023-06-22T10:58:17;18;18;
47741;PMS5003;33504;52.066;6.096;2023-06-22T11:00:45;23;22;
47741;PMS5003;33504;52.066;6.096;2023-06-22T11:03:12;22;20;
47741;PMS5003;33504;52.066;6.096;2023-06-22T11:05:39;23;22;
47741;PMS5003;33504;52.066;6.096;2023-06-22T11:08:06;23;22;
47741;PMS5003;33504;52.066;6.096;2023-06-22T11:10:34;20;19;
47741;PMS5003;33504;52.066;6.096;2023-06-22T11:13:01;22;21;
47741;PMS5003;33504;52.066;6.096;2023-06-22T11:15:28;21;21;
47741;PMS5003;33504;52.066;6.096;2023-06-22T11:17:55;21;20;
47741;PMS5003;33504;52.066;6.096;2023-06-22T11:20:22;21;21;
47741;PMS5003;33504;52.066;6.096;2023-06-22T11:22:49;20;19;
47741;PMS5003;33504;52.066;6.096;2023-06-22T11:25:17;22;20;
47741;PMS5003;33504;52.066;6.096;2023-06-22T11:27:44;22;21;
47741;PMS5003;33504;52.066;6.096;2023-06-22T11:30:11;18;17;
47741;PMS5003;33504;52.066;6.096;2023-06-22T11:32:38;22;22;
47741;PMS5003;33504;52.066;6.096;2023-06-22T11:35:06;25;25;
47741;PMS5003;33504;52.066;6.096;2023-06-22T11:37:34;26;25;
47741;PMS5003;33504;52.066;6.096;2023-06-22T11:40:01;25;24;
47741;PMS5003;33504;52.066;6.096;2023-06-22T11:42:28;29;29;
47741;PMS5003;33504;52.066;6.096;2023-06-22T11:44:55;27;26;
47741;PMS5003;33504;52.066;6.096;2023-06-22T11:47:23;29;29;
47741;PMS5003;33504;52.066;6.096;2023-06-22T11:49:50;28;28;
47741;PMS5003;33504;52.066;6.096;2023-06-22T11:52:17;28;28;
47741;PMS5003;33504;52.066;6.096;2023-06-22T11:54:44;37;36;
47741;PMS5003;33504;52.066;6.096;2023-06-22T11:57:11;36;36;
47741;PMS5003;33504;52.066;6.096;2023-06-22T11:59:39;39;39;
47741;PMS5003;33504;52.066;6.096;2023-06-22T12:02:06;43;42;
47741;PMS5003;33504;52.066;6.096;2023-06-22T12:04:33;25;25;
47741;PMS5003;33504;52.066;6.096;2023-06-22T12:07:01;26;26;
47741;PMS5003;33504;52.066;6.096;2023-06-22T12:09:28;28;27;
47741;PMS5003;33504;52.066;6.096;2023-06-22T12:11:55;35;34;
47741;PMS5003;33504;52.066;6.096;2023-06-22T12:14:22;25;25;
47741;PMS5003;33504;52.066;6.096;2023-06-22T12:16:49;26;25;
47741;PMS5003;33504;52.066;6.096;2023-06-22T12:19:16;40;39;
47741;PMS5003;33504;52.066;6.096;2023-06-22T12:21:43;28;28;
47741;PMS5003;33504;52.066;6.096;2023-06-22T12:24:10;40;37;
47741;PMS5003;33504;52.066;6.096;2023-06-22T12:26:37;27;26;
47741;PMS5003;33504;52.066;6.096;2023-06-22T12:29:04;31;30;
47741;PMS5003;33504;52.066;6.096;2023-06-22T12:31:31;33;31;
47741;PMS5003;33504;52.066;6.096;2023-06-22T12:33:58;31;31;
47741;PMS5003;33504;52.066;6.096;2023-06-22T12:36:26;34;33;
47741;PMS5003;33504;52.066;6.096;2023-06-22T12:38:53;35;35;
47741;PMS5003;33504;52.066;6.096;2023-06-22T12:41:20;29;28;
47741;PMS5003;33504;52.066;6.096;2023-06-22T12:43:47;37;37;
47741;PMS5003;33504;52.066;6.096;2023-06-22T12:46:13;36;36;
47741;PMS5003;33504;52.066;6.096;2023-06-22T12:48:40;37;37;
47741;PMS5003;33504;52.066;6.096;2023-06-22T12:51:07;33;33;
47741;PMS5003;33504;52.066;6.096;2023-06-22T12:53:35;34;34;
47741;PMS5003;33504;52.066;6.096;2023-06-22T12:56:02;36;34;
47741;PMS5003;33504;52.066;6.096;2023-06-22T12:58:30;38;36;
47741;PMS5003;33504;52.066;6.096;2023-06-22T13:00:57;37;37;
47741;PMS5003;33504;52.066;6.096;2023-06-22T13:03:24;36;35;
47741;PMS5003;33504;52.066;6.096;2023-06-22T13:05:51;36;35;
47741;PMS5003;33504;52.066;6.096;2023-06-22T13:08:18;34;34;
47741;PMS5003;33504;52.066;6.096;2023-06-22T13:10:45;38;38;
47741;PMS5003;33504;52.066;6.096;2023-06-22T13:13:13;33;31;
47741;PMS5003;33504;52.066;6.096;2023-06-22T13:15:40;40;40;
47741;PMS5003;33504;52.066;6.096;2023-06-22T13:18:07;34;34;
47741;PMS5003;33504;52.066;6.096;2023-06-22T13:20:34;37;37;
47741;PMS5003;33504;52.066;6.096;2023-06-22T13:23:01;35;35;
47741;PMS5003;33504;52.066;6.096;2023-06-22T13:25:28;42;41;
47741;PMS5003;33504;52.066;6.096;2023-06-22T13:27:55;36;36;
47741;PMS5003;33504;52.066;6.096;2023-06-22T13:30:23;45;43;
47741;PMS5003;33504;52.066;6.096;2023-06-22T13:32:50;38;35;
47741;PMS5003;33504;52.066;6.096;2023-06-22T13:35:17;34;34;
47741;PMS5003;33504;52.066;6.096;2023-06-22T13:37:45;39;39;
47741;PMS5003;33504;52.066;6.096;2023-06-22T13:40:12;43;41;
47741;PMS5003;33504;52.066;6.096;2023-06-22T13:42:39;40;39;
47741;PMS5003;33504;52.066;6.096;2023-06-22T13:45:07;40;39;
47741;PMS5003;33504;52.066;6.096;2023-06-22T13:47:34;41;40;
47741;PMS5003;33504;52.066;6.096;2023-06-22T13:50:02;44;41;
47741;PMS5003;33504;52.066;6.096;2023-06-22T13:52:29;40;39;
47741;PMS5003;33504;52.066;6.096;2023-06-22T13:54:56;38;36;
47741;PMS5003;33504;52.066;6.096;2023-06-22T13:57:23;40;38;
47741;PMS5003;33504;52.066;6.096;2023-06-22T13:59:50;39;39;
47741;PMS5003;33504;52.066;6.096;2023-06-22T14:02:17;38;38;
47741;PMS5003;33504;52.066;6.096;2023-06-22T14:04:43;41;40;
47741;PMS5003;33504;52.066;6.096;2023-06-22T14:07:11;45;43;
47741;PMS5003;33504;52.066;6.096;2023-06-22T14:09:38;40;38;
47741;PMS5003;33504;52.066;6.096;2023-06-22T14:12:06;35;34;
47741;PMS5003;33504;52.066;6.096;2023-06-22T14:14:33;37;36;
47741;PMS5003;33504;52.066;6.096;2023-06-22T14:17:00;45;45;
47741;PMS5003;33504;52.066;6.096;2023-06-22T14:19:28;46;44;
47741;PMS5003;33504;52.066;6.096;2023-06-22T14:21:55;46;45;
47741;PMS5003;33504;52.066;6.096;2023-06-22T14:24:22;38;38;
47741;PMS5003;33504;52.066;6.096;2023-06-22T14:26:49;41;40;
47741;PMS5003;33504;52.066;6.096;2023-06-22T14:29:16;45;44;
47741;PMS5003;33504;52.066;6.096;2023-06-22T14:31:44;40;39;
47741;PMS5003;33504;52.066;6.096;2023-06-22T14:34:12;37;37;
47741;PMS5003;33504;52.066;6.096;2023-06-22T14:36:40;36;36;
47741;PMS5003;33504;52.066;6.096;2023-06-22T14:39:08;41;39;
47741;PMS5003;33504;52.066;6.096;2023-06-22T14:41:35;36;35;
47741;PMS5003;33504;52.066;6.096;2023-06-22T14:44:03;40;39;
47741;PMS5003;33504;52.066;6.096;2023-06-22T14:46:31;38;38;
47741;PMS5003;33504;52.066;6.096;2023-06-22T14:48:58;35;34;
47741;PMS5003;33504;52.066;6.096;2023-06-22T14:51:24;38;38;
47741;PMS5003;33504;52.066;6.096;2023-06-22T14:53:51;38;37;
47741;PMS5003;33504;52.066;6.096;2023-06-22T14:56:18;38;36;
47741;PMS5003;33504;52.066;6.096;2023-06-22T14:58:45;39;39;
47741;PMS5003;33504;52.066;6.096;2023-06-22T15:01:12;39;39;
47741;PMS5003;33504;52.066;6.096;2023-06-22T15:03:39;39;39;
47741;PMS5003;33504;52.066;6.096;2023-06-22T15:06:07;39;39;
47741;PMS5003;33504;52.066;6.096;2023-06-22T15:08:36;34;34;
47741;PMS5003;33504;52.066;6.096;2023-06-22T15:11:03;39;39;
47741;PMS5003;33504;52.066;6.096;2023-06-22T15:13:30;41;41;
47741;PMS5003;33504;52.066;6.096;2023-06-22T15:15:58;41;41;
47741;PMS5003;33504;52.066;6.096;2023-06-22T15:18:25;46;46;
47741;PMS5003;33504;52.066;6.096;2023-06-22T15:20:52;45;43;
47741;PMS5003;33504;52.066;6.096;2023-06-22T15:23:20;51;49;
47741;PMS5003;33504;52.066;6.096;2023-06-22T15:25:47;50;48;
47741;PMS5003;33504;52.066;6.096;2023-06-22T15:28:14;47;46;
47741;PMS5003;33504;52.066;6.096;2023-06-22T15:30:41;41;40;
47741;PMS5003;33504;52.066;6.096;2023-06-22T15:33:08;46;44;
47741;PMS5003;33504;52.066;6.096;2023-06-22T15:35:35;49;48;
47741;PMS5003;33504;52.066;6.096;2023-06-22T15:38:03;50;49;
47741;PMS5003;33504;52.066;6.096;2023-06-22T15:40:30;48;48;
47741;PMS5003;33504;52.066;6.096;2023-06-22T15:42:57;51;49;
47741;PMS5003;33504;52.066;6.096;2023-06-22T15:45:25;49;49;
47741;PMS5003;33504;52.066;6.096;2023-06-22T15:47:52;50;49;
47741;PMS5003;33504;52.066;6.096;2023-06-22T15:50:19;49;48;
47741;PMS5003;33504;52.066;6.096;2023-06-22T15:52:46;48;44;
47741;PMS5003;33504;52.066;6.096;2023-06-22T15:55:13;52;51;
47741;PMS5003;33504;52.066;6.096;2023-06-22T15:57:41;57;56;
47741;PMS5003;33504;52.066;6.096;2023-06-22T16:00:08;50;50;
47741;PMS5003;33504;52.066;6.096;2023-06-22T16:02:36;50;50;
47741;PMS5003;33504;52.066;6.096;2023-06-22T16:05:03;52;51;
47741;PMS5003;33504;52.066;6.096;2023-06-22T16:07:30;51;51;
47741;PMS5003;33504;52.066;6.096;2023-06-22T16:09:57;44;43;
47741;PMS5003;33504;52.066;6.096;2023-06-22T16:12:25;60;57;
47741;PMS5003;33504;52.066;6.096;2023-06-22T16:14:52;54;53;
47741;PMS5003;33504;52.066;6.096;2023-06-22T16:17:18;49;49;
47741;PMS5003;33504;52.066;6.096;2023-06-22T16:19:45;55;55;